Time;durP1;ratioP1;P1;durP2;ratioP2;P2;SDS_P1;SDS_P2;PMS_P1;PMS_P2;Temp;Humidity;BMP_temperature;BMP_pressure;BME280_temperature;BME280_humidity;BME280_pressure;Samples;Min_cycle;Max_cycle;Signal;HPM_P1;HPM_P2
2021/09/29 00:00:44;;;;;;;25.52;12.57;;;11.20;99.90;;;;;;5100652;28;20032;-66
2021/09/29 00:03:09;;;;;;;20.85;13.98;;;11.20;99.90;;;;;;5090255;28;20496;-66
2021/09/29 00:05:35;;;;;;;22.52;14.60;;;11.20;99.90;;;;;;5094980;28;20048;-66
2021/09/29 00:08:01;;;;;;;30.08;15.38;;;11.20;99.90;;;;;;5100242;28;20085;-66
2021/09/29 00:10:27;;;;;;;22.83;14.52;;;11.20;99.90;;;;;;5102397;28;20044;-66
2021/09/29 00:12:52;;;;;;;29.05;14.98;;;11.10;99.90;;;;;;5097693;28;20052;-66
2021/09/29 00:15:18;;;;;;;26.75;14.30;;;11.10;99.90;;;;;;5093091;28;20075;-66
2021/09/29 00:17:46;;;;;;;20.58;14.32;;;11.10;99.90;;;;;;5082771;28;20044;-66
2021/09/29 00:20:13;;;;;;;18.77;13.73;;;11.10;99.90;;;;;;5101667;28;20049;-66
2021/09/29 00:22:40;;;;;;;23.70;13.82;;;11.10;99.90;;;;;;5089092;28;20114;-66
2021/09/29 00:25:08;;;;;;;25.20;14.10;;;11.10;99.90;;;;;;5095716;28;21750;-66
2021/09/29 00:27:35;;;;;;;31.00;14.98;;;11.00;99.90;;;;;;5083175;28;20047;-66
2021/09/29 00:30:05;;;;;;;30.83;15.30;;;11.00;99.90;;;;;;5101874;28;20054;-66
2021/09/29 00:32:33;;;;;;;25.58;15.52;;;11.00;99.90;;;;;;5096327;28;20058;-66
2021/09/29 00:34:58;;;;;;;25.65;15.05;;;11.00;99.90;;;;;;5076743;28;20043;-66
2021/09/29 00:37:24;;;;;;;23.75;14.02;;;11.00;99.90;;;;;;5103455;28;20068;-66
2021/09/29 00:39:50;;;;;;;22.92;15.05;;;11.00;99.90;;;;;;5093715;28;20076;-66
2021/09/29 00:42:15;;;;;;;32.30;15.10;;;11.00;99.90;;;;;;5102774;28;20074;-66
2021/09/29 00:44:41;;;;;;;25.70;16.02;;;10.90;99.90;;;;;;5093186;28;20051;-66
2021/09/29 00:47:07;;;;;;;22.23;14.35;;;10.90;99.90;;;;;;5088639;28;20044;-66
2021/09/29 00:49:32;;;;;;;25.00;14.73;;;10.90;99.90;;;;;;5079494;28;20042;-66
2021/09/29 00:51:58;;;;;;;25.63;14.45;;;10.90;99.90;;;;;;5081971;28;20060;-66
2021/09/29 00:54:29;;;;;;;20.02;14.63;;;10.90;99.90;;;;;;5092736;28;20036;-66
2021/09/29 00:56:56;;;;;;;21.70;13.45;;;10.90;99.90;;;;;;5103318;28;20082;-66
2021/09/29 00:59:22;;;;;;;20.70;14.40;;;10.80;99.90;;;;;;5106396;28;20036;-66
2021/09/29 01:01:48;;;;;;;22.05;15.02;;;10.80;99.90;;;;;;5104169;28;20044;-66
2021/09/29 01:04:15;;;;;;;21.85;13.80;;;10.90;99.90;;;;;;5097146;28;20044;-66
2021/09/29 01:06:52;;;;;;;25.52;13.88;;;10.80;99.90;;;;;;5085316;28;20266;-66
2021/09/29 01:09:26;;;;;;;22.08;14.80;;;10.80;99.90;;;;;;5082342;28;20048;-66
2021/09/29 01:12:16;;;;;;;25.20;15.23;;;10.80;99.90;;;;;;5065436;28;20100;-66
2021/09/29 01:14:48;;;;;;;23.33;14.50;;;10.80;99.90;;;;;;5082321;28;20036;-66
2021/09/29 01:17:17;;;;;;;23.63;14.05;;;10.80;99.90;;;;;;5099145;28;20040;-66
2021/09/29 01:20:14;;;;;;;19.42;12.82;;;10.80;99.90;;;;;;5106681;28;20115;-66
2021/09/29 01:23:18;;;;;;;28.52;14.27;;;10.80;99.90;;;;;;5095027;28;20040;-66
2021/09/29 01:25:58;;;;;;;25.55;14.93;;;10.70;99.90;;;;;;5106704;28;20042;-66
2021/09/29 01:28:33;;;;;;;22.92;13.55;;;10.70;99.90;;;;;;5101551;28;20096;-66
2021/09/29 01:31:00;;;;;;;24.73;15.43;;;10.80;99.90;;;;;;5092565;28;20043;-66
2021/09/29 01:33:28;;;;;;;19.63;13.63;;;10.70;99.90;;;;;;5099500;28;20048;-66
2021/09/29 01:35:55;;;;;;;27.42;13.40;;;10.70;99.90;;;;;;5099662;28;20062;-66
2021/09/29 01:38:21;;;;;;;18.92;13.13;;;10.70;99.90;;;;;;5085197;28;20075;-66
2021/09/29 01:40:46;;;;;;;30.60;13.50;;;10.70;99.90;;;;;;5101806;28;20041;-66
2021/09/29 01:43:12;;;;;;;21.50;12.80;;;10.70;99.90;;;;;;5097062;28;20071;-66
2021/09/29 01:45:38;;;;;;;18.95;12.27;;;10.70;99.90;;;;;;5071897;28;20101;-66
2021/09/29 01:48:05;;;;;;;25.00;13.00;;;10.70;99.90;;;;;;5087879;28;20049;-66
2021/09/29 01:50:31;;;;;;;21.30;11.95;;;10.70;99.90;;;;;;5096213;28;20175;-66
2021/09/29 01:52:59;;;;;;;26.10;13.73;;;10.60;99.90;;;;;;5102849;28;20048;-66
2021/09/29 01:55:26;;;;;;;18.05;13.00;;;10.70;99.90;;;;;;5081067;28;20103;-67
2021/09/29 01:57:53;;;;;;;21.17;12.93;;;10.60;99.90;;;;;;5087872;28;20040;-65
2021/09/29 02:00:19;;;;;;;24.83;13.45;;;10.70;99.90;;;;;;5079252;28;20045;-66
2021/09/29 02:02:46;;;;;;;20.35;13.23;;;10.60;99.90;;;;;;5098495;28;20524;-66
2021/09/29 02:05:12;;;;;;;25.95;14.23;;;10.60;99.90;;;;;;5094870;28;20067;-67
2021/09/29 02:07:39;;;;;;;22.20;13.07;;;10.50;99.90;;;;;;5092630;28;20056;-66
2021/09/29 02:10:08;;;;;;;24.30;13.90;;;10.50;99.90;;;;;;5068340;28;20045;-67
2021/09/29 02:12:37;;;;;;;19.65;13.32;;;10.50;99.90;;;;;;5086816;28;20131;-66
2021/09/29 02:15:05;;;;;;;20.45;13.13;;;10.60;99.90;;;;;;5090937;28;20043;-66
2021/09/29 02:17:31;;;;;;;25.10;14.10;;;10.50;99.90;;;;;;5083602;28;20040;-66
2021/09/29 02:19:56;;;;;;;19.42;12.98;;;10.50;99.90;;;;;;5103955;28;20128;-66
2021/09/29 02:22:22;;;;;;;19.60;14.18;;;10.50;99.90;;;;;;5072855;28;20069;-65
2021/09/29 02:24:48;;;;;;;25.42;15.13;;;10.50;99.90;;;;;;5099433;28;20052;-66
2021/09/29 02:27:14;;;;;;;20.67;13.45;;;10.50;99.90;;;;;;5071561;28;20628;-66
2021/09/29 02:29:41;;;;;;;22.27;14.90;;;10.50;99.90;;;;;;5093355;28;20048;-67
2021/09/29 02:32:07;;;;;;;26.23;14.13;;;10.50;99.90;;;;;;5096342;28;20052;-66
2021/09/29 02:34:33;;;;;;;22.58;13.88;;;10.40;99.90;;;;;;5103759;28;20044;-66
2021/09/29 02:36:58;;;;;;;20.98;13.57;;;10.40;99.90;;;;;;5086334;28;20056;-67
2021/09/29 02:39:24;;;;;;;26.55;14.70;;;10.40;99.90;;;;;;5085686;28;20098;-66
2021/09/29 02:41:50;;;;;;;31.00;14.48;;;10.40;99.90;;;;;;5086324;28;20052;-66
2021/09/29 02:44:16;;;;;;;24.48;13.00;;;10.40;99.90;;;;;;5070360;28;20049;-66
2021/09/29 02:46:42;;;;;;;23.42;13.93;;;10.40;99.90;;;;;;5088974;28;20044;-66
2021/09/29 02:49:08;;;;;;;26.95;13.68;;;10.40;99.90;;;;;;5068607;28;20066;-66
2021/09/29 02:51:35;;;;;;;29.60;16.38;;;10.30;99.90;;;;;;5083073;28;20538;-65
2021/09/29 02:54:02;;;;;;;22.05;14.63;;;10.30;99.90;;;;;;5102037;28;20130;-66
2021/09/29 02:56:28;;;;;;;20.90;13.77;;;10.30;99.90;;;;;;5095697;28;20114;-66
2021/09/29 02:58:55;;;;;;;24.50;14.47;;;10.30;99.90;;;;;;5092499;28;20051;-66
2021/09/29 03:01:20;;;;;;;25.00;14.02;;;10.30;99.90;;;;;;5093223;28;20040;-66
2021/09/29 03:03:47;;;;;;;27.42;14.63;;;;;;;;;;5097665;28;20056;-65
2021/09/29 03:06:13;;;;;;;22.63;14.50;;;10.30;99.90;;;;;;5096848;28;20491;-66
2021/09/29 03:08:38;;;;;;;25.30;15.07;;;10.30;99.90;;;;;;5088210;28;20044;-66
2021/09/29 03:11:04;;;;;;;22.38;15.20;;;10.40;99.90;;;;;;5093976;28;20074;-67
2021/09/29 03:13:30;;;;;;;21.80;14.10;;;10.30;99.90;;;;;;5073382;28;20044;-66
2021/09/29 03:15:55;;;;;;;25.55;14.32;;;10.30;99.90;;;;;;5100732;28;20040;-66
2021/09/29 03:18:21;;;;;;;23.80;14.95;;;10.20;99.90;;;;;;5102377;28;20108;-66
2021/09/29 03:20:47;;;;;;;24.05;13.68;;;10.20;99.90;;;;;;5098324;28;20068;-67
2021/09/29 03:23:13;;;;;;;21.60;14.25;;;10.20;99.90;;;;;;5084552;28;20111;-67
2021/09/29 03:25:39;;;;;;;23.48;14.38;;;10.30;99.90;;;;;;5100516;28;20499;-66
2021/09/29 03:28:05;;;;;;;23.20;13.45;;;10.30;99.90;;;;;;5101687;28;20040;-66
2021/09/29 03:30:30;;;;;;;19.38;13.43;;;10.20;99.90;;;;;;5086276;28;20045;-66
2021/09/29 03:32:56;;;;;;;29.88;15.23;;;10.30;99.90;;;;;;5103954;28;20048;-67
2021/09/29 03:35:23;;;;;;;23.85;13.18;;;10.30;99.90;;;;;;5103016;28;20075;-66
2021/09/29 03:37:49;;;;;;;23.20;13.77;;;10.30;99.90;;;;;;5095430;28;20058;-67
2021/09/29 03:40:15;;;;;;;24.73;13.75;;;10.30;99.90;;;;;;5103460;28;20072;-67
2021/09/29 03:42:42;;;;;;;22.20;13.40;;;10.30;99.90;;;;;;5082946;28;20113;-67
2021/09/29 03:45:09;;;;;;;17.15;13.23;;;10.20;99.90;;;;;;5093534;28;20099;-67
2021/09/29 03:47:35;;;;;;;23.45;13.50;;;10.30;99.90;;;;;;5099255;28;20059;-66
2021/09/29 03:50:01;;;;;;;21.85;13.93;;;10.40;99.90;;;;;;5092880;28;20036;-68
2021/09/29 03:52:26;;;;;;;21.70;12.95;;;10.40;99.90;;;;;;5070919;28;20051;-66
2021/09/29 03:54:52;;;;;;;25.80;13.55;;;10.30;99.90;;;;;;5079015;28;20039;-66
2021/09/29 03:57:18;;;;;;;25.67;14.25;;;10.40;99.90;;;;;;5097092;28;20046;-67
2021/09/29 03:59:44;;;;;;;25.27;13.55;;;10.30;99.90;;;;;;5072677;28;20060;-68
2021/09/29 04:02:09;;;;;;;21.02;13.07;;;10.40;99.90;;;;;;5099296;28;20537;-67
2021/09/29 04:04:35;;;;;;;23.48;13.68;;;10.40;99.90;;;;;;5093697;28;20076;-67
2021/09/29 04:07:01;;;;;;;22.55;13.55;;;10.40;99.90;;;;;;5096570;28;20105;-67
2021/09/29 04:09:26;;;;;;;19.77;12.65;;;10.40;99.90;;;;;;5095766;28;20138;-67
2021/09/29 04:11:52;;;;;;;16.55;13.20;;;10.40;99.90;;;;;;5094698;28;20068;-67
2021/09/29 04:14:18;;;;;;;24.63;13.10;;;10.40;99.90;;;;;;5103504;28;20442;-67
2021/09/29 04:16:46;;;;;;;27.98;14.23;;;10.40;99.90;;;;;;5099045;28;20032;-67
2021/09/29 04:19:13;;;;;;;22.58;13.82;;;10.40;99.90;;;;;;5097382;28;20037;-66
2021/09/29 04:21:39;;;;;;;20.63;12.43;;;10.40;99.90;;;;;;5079119;28;20108;-68
2021/09/29 04:24:04;;;;;;;27.27;14.32;;;10.30;99.90;;;;;;5086191;28;20041;-68
2021/09/29 04:26:31;;;;;;;21.77;14.00;;;10.30;99.90;;;;;;5098788;28;20048;-67
2021/09/29 04:28:57;;;;;;;24.23;13.93;;;10.30;99.90;;;;;;5098982;28;20044;-68
2021/09/29 04:31:22;;;;;;;28.30;14.23;;;10.30;99.90;;;;;;5098847;28;20069;-66
2021/09/29 04:33:48;;;;;;;20.33;12.27;;;10.30;99.90;;;;;;5098369;28;20044;-67
2021/09/29 04:36:14;;;;;;;22.98;14.63;;;10.50;99.90;;;;;;5065992;28;20044;-67
2021/09/29 04:38:40;;;;;;;26.25;14.27;;;10.40;99.90;;;;;;5087917;28;20094;-68
2021/09/29 04:41:05;;;;;;;24.35;13.65;;;10.40;99.90;;;;;;5065766;28;20056;-68
2021/09/29 04:43:31;;;;;;;20.48;12.65;;;10.30;99.90;;;;;;5095372;28;20044;-68
2021/09/29 04:45:57;;;;;;;30.48;15.25;;;10.30;99.90;;;;;;5083510;28;20452;-68
2021/09/29 04:48:22;;;;;;;16.48;11.88;;;10.30;99.90;;;;;;5096939;28;20060;-68
2021/09/29 04:50:48;;;;;;;20.30;12.10;;;10.30;99.90;;;;;;5098114;28;20047;-67
2021/09/29 04:53:14;;;;;;;29.90;14.30;;;10.30;99.90;;;;;;5097716;28;20043;-68
2021/09/29 04:55:40;;;;;;;23.23;11.85;;;10.20;99.90;;;;;;5100852;28;20040;-68
2021/09/29 04:58:09;;;;;;;22.13;12.50;;;10.30;99.90;;;;;;5068268;28;20051;-67
2021/09/29 05:00:35;;;;;;;27.85;13.45;;;10.30;99.90;;;;;;5095636;28;20765;-68
2021/09/29 05:03:02;;;;;;;18.02;13.38;;;10.20;99.90;;;;;;5070302;28;20100;-68
2021/09/29 05:05:28;;;;;;;19.75;12.95;;;10.30;99.90;;;;;;5097639;28;20048;-68
2021/09/29 05:07:58;;;;;;;19.80;12.82;;;10.30;99.90;;;;;;5089687;28;20531;-68
2021/09/29 05:10:45;;;;;;;20.25;11.68;;;10.30;99.90;;;;;;5073557;28;20116;-68
2021/09/29 05:13:17;;;;;;;18.77;11.95;;;10.30;99.90;;;;;;5093198;28;20128;-68
2021/09/29 05:15:43;;;;;;;27.27;13.02;;;10.20;99.90;;;;;;5093499;28;20040;-68
2021/09/29 05:18:09;;;;;;;24.75;12.60;;;10.30;99.90;;;;;;5098680;28;20086;-68
2021/09/29 05:20:35;;;;;;;20.95;11.88;;;10.20;99.90;;;;;;5095307;28;20036;-68
2021/09/29 05:23:00;;;;;;;19.60;10.95;;;10.30;99.90;;;;;;5096586;28;20040;-67
2021/09/29 05:25:26;;;;;;;26.42;12.77;;;10.30;99.90;;;;;;5059724;28;20048;-68
2021/09/29 05:27:53;;;;;;;28.35;11.65;;;10.30;99.90;;;;;;5086114;28;20496;-68
2021/09/29 05:30:18;;;;;;;20.75;13.20;;;10.30;99.90;;;;;;5087927;28;20448;-68
2021/09/29 05:32:44;;;;;;;21.40;11.82;;;10.20;99.90;;;;;;5098315;28;20040;-68
2021/09/29 05:35:10;;;;;;;21.08;12.48;;;10.30;99.90;;;;;;5094976;28;20072;-68
2021/09/29 05:37:35;;;;;;;21.00;13.68;;;10.20;99.90;;;;;;5091811;28;20048;-68
2021/09/29 05:40:02;;;;;;;21.08;13.30;;;10.10;99.90;;;;;;5093420;28;20050;-68
2021/09/29 05:42:29;;;;;;;27.92;14.10;;;10.20;99.90;;;;;;5093934;28;20053;-68
2021/09/29 05:44:55;;;;;;;25.13;13.25;;;10.20;99.90;;;;;;5086931;28;20068;-68
2021/09/29 05:47:20;;;;;;;19.30;13.10;;;10.20;99.90;;;;;;5087639;28;20044;-68
2021/09/29 05:49:46;;;;;;;30.65;13.32;;;10.10;99.90;;;;;;5093036;28;20059;-67
2021/09/29 05:52:11;;;;;;;22.58;12.77;;;10.20;99.90;;;;;;5098071;28;20451;-68
2021/09/29 05:54:37;;;;;;;20.63;11.65;;;10.10;99.90;;;;;;5090422;28;20048;-68
2021/09/29 05:57:04;;;;;;;24.08;12.73;;;10.20;99.90;;;;;;5095203;28;20127;-68
2021/09/29 05:59:29;;;;;;;22.75;11.95;;;10.20;99.90;;;;;;5090815;28;20041;-67
2021/09/29 06:01:55;;;;;;;24.20;13.35;;;10.20;99.90;;;;;;5088620;28;20044;-68
2021/09/29 06:04:21;;;;;;;26.75;12.02;;;10.30;99.90;;;;;;5086602;28;20484;-68
2021/09/29 06:06:46;;;;;;;24.60;13.07;;;10.20;99.90;;;;;;5085889;28;20053;-68
2021/09/29 06:09:12;;;;;;;21.08;13.13;;;10.20;99.90;;;;;;5094023;28;20039;-68
2021/09/29 06:11:38;;;;;;;21.60;12.90;;;10.20;99.90;;;;;;5094011;28;20096;-68
2021/09/29 06:14:04;;;;;;;28.25;12.95;;;10.20;99.90;;;;;;5092317;28;20503;-68
2021/09/29 06:16:34;;;;;;;25.50;13.20;;;10.30;99.90;;;;;;5080449;28;20080;-68
2021/09/29 06:19:00;;;;;;;22.08;11.20;;;10.30;99.90;;;;;;5089761;28;20040;-68
2021/09/29 06:21:26;;;;;;;21.95;11.23;;;10.30;99.90;;;;;;5086171;28;20101;-68
2021/09/29 06:23:52;;;;;;;22.65;11.75;;;10.40;99.90;;;;;;5086171;28;20100;-67
2021/09/29 06:26:17;;;;;;;26.75;11.48;;;10.50;99.90;;;;;;5086947;28;20040;-68
2021/09/29 06:28:43;;;;;;;15.60;11.35;;;10.50;99.90;;;;;;5088528;28;20040;-68
2021/09/29 06:31:09;;;;;;;20.42;11.18;;;10.50;99.90;;;;;;5085902;28;20041;-68
2021/09/29 06:33:35;;;;;;;18.48;11.40;;;10.50;99.90;;;;;;5060906;28;20051;-68
2021/09/29 06:36:02;;;;;;;22.30;12.13;;;10.50;99.90;;;;;;5085903;28;20044;-68
2021/09/29 06:38:28;;;;;;;21.20;10.38;;;10.60;99.90;;;;;;5092665;28;20104;-68
2021/09/29 06:40:53;;;;;;;18.63;9.88;;;10.50;99.90;;;;;;5070985;28;20076;-68
2021/09/29 06:43:19;;;;;;;16.27;9.52;;;10.60;99.90;;;;;;5085964;28;20060;-68
2021/09/29 06:45:46;;;;;;;21.10;9.88;;;10.70;99.90;;;;;;5086024;28;20068;-68
2021/09/29 06:48:12;;;;;;;19.75;10.07;;;10.70;99.90;;;;;;5088030;28;20592;-68
2021/09/29 06:50:38;;;;;;;25.45;10.23;;;10.80;99.90;;;;;;5072681;28;20108;-68
2021/09/29 06:53:04;;;;;;;15.85;10.32;;;10.80;99.90;;;;;;5087948;28;20062;-68
2021/09/29 06:55:30;;;;;;;17.40;10.13;;;10.80;99.90;;;;;;5085294;28;20087;-68
2021/09/29 06:57:56;;;;;;;23.58;9.93;;;10.90;99.90;;;;;;5085673;28;20045;-68
2021/09/29 07:00:23;;;;;;;16.02;9.60;;;11.00;99.90;;;;;;5086328;28;20491;-68
2021/09/29 07:02:49;;;;;;;20.17;9.10;;;11.00;99.90;;;;;;5104420;28;20036;-68
2021/09/29 07:05:16;;;;;;;18.55;9.48;;;11.10;99.90;;;;;;5091197;28;20040;-68
2021/09/29 07:07:42;;;;;;;18.73;8.90;;;11.10;99.90;;;;;;5101359;28;20051;-68
2021/09/29 07:10:09;;;;;;;21.20;9.88;;;11.10;99.90;;;;;;5093096;28;20032;-68
2021/09/29 07:12:39;;;;;;;19.83;8.95;;;11.20;99.90;;;;;;5076434;28;20141;-68
2021/09/29 07:15:06;;;;;;;20.98;10.00;;;11.30;99.90;;;;;;5074907;28;20523;-68
2021/09/29 07:17:32;;;;;;;17.87;8.30;;;11.30;99.90;;;;;;5078787;28;20107;-68
2021/09/29 07:19:58;;;;;;;19.02;8.95;;;11.40;99.90;;;;;;5097695;28;20306;-68
2021/09/29 07:22:26;;;;;;;18.30;7.57;;;11.40;99.90;;;;;;5079282;28;20040;-68
2021/09/29 07:24:52;;;;;;;16.10;7.20;;;11.50;99.90;;;;;;5095667;28;20055;-68
2021/09/29 07:27:18;;;;;;;18.27;7.50;;;11.60;99.90;;;;;;5101156;28;20194;-67
2021/09/29 07:29:44;;;;;;;19.90;7.22;;;11.60;99.90;;;;;;5077487;28;20048;-67
2021/09/29 07:32:10;;;;;;;10.48;6.40;;;11.70;99.90;;;;;;5096715;28;20051;-67
2021/09/29 07:34:36;;;;;;;18.92;7.07;;;11.80;99.90;;;;;;5074821;28;20044;-67
2021/09/29 07:37:01;;;;;;;15.95;7.47;;;11.80;99.90;;;;;;5089557;28;20055;-67
2021/09/29 07:39:27;;;;;;;18.30;7.32;;;11.90;99.90;;;;;;5096681;28;20044;-67
2021/09/29 07:41:53;;;;;;;18.17;7.40;;;11.90;99.90;;;;;;5096602;28;20036;-70
2021/09/29 07:44:19;;;;;;;18.75;6.80;;;11.90;99.90;;;;;;5089701;28;20044;-70
2021/09/29 07:46:46;;;;;;;15.98;7.93;;;11.70;99.90;;;;;;5095842;28;20079;-69
2021/09/29 07:49:13;;;;;;;19.73;7.65;;;11.50;99.90;;;;;;5092862;28;20047;-69
2021/09/29 07:51:39;;;;;;;19.35;9.05;;;11.40;99.90;;;;;;5093461;28;20040;-70
2021/09/29 07:54:05;;;;;;;17.38;8.32;;;11.30;99.90;;;;;;5081719;28;20052;-70
2021/09/29 07:56:31;;;;;;;15.32;8.60;;;11.40;99.90;;;;;;5091610;28;20104;-70
2021/09/29 07:58:57;;;;;;;16.70;8.45;;;11.40;99.90;;;;;;5089694;28;20072;-70
2021/09/29 08:01:23;;;;;;;18.13;7.80;;;11.40;99.90;;;;;;5098735;28;20079;-70
2021/09/29 08:03:49;;;;;;;20.75;9.88;;;11.40;99.90;;;;;;5076809;28;20400;-69
2021/09/29 08:06:15;;;;;;;12.38;7.25;;;11.40;99.90;;;;;;5097799;28;20415;-69
2021/09/29 08:08:41;;;;;;;16.75;8.40;;;11.50;99.90;;;;;;5063061;28;20097;-69
2021/09/29 08:11:07;;;;;;;22.40;9.88;;;11.50;99.90;;;;;;5095690;28;20499;-69
2021/09/29 08:13:33;;;;;;;17.08;8.30;;;11.60;99.90;;;;;;5102140;28;20040;-68
2021/09/29 08:15:59;;;;;;;13.77;8.43;;;11.50;99.90;;;;;;5102431;28;20484;-69
2021/09/29 08:18:25;;;;;;;15.38;8.73;;;11.60;99.90;;;;;;5098651;28;20049;-69
2021/09/29 08:20:54;;;;;;;17.20;8.13;;;11.70;99.90;;;;;;5100823;28;20101;-69
2021/09/29 08:23:32;;;;;;;17.00;8.05;;;11.60;99.90;;;;;;5092847;28;20086;-69
2021/09/29 08:36:52;;;;;;;18.30;8.00;;;12.00;99.90;;;;;;5073794;28;20147;-69
2021/09/29 08:45:04;;;;;;;14.35;7.50;;;12.10;99.90;;;;;;5097374;28;20056;-69
2021/09/29 08:48:08;;;;;;;14.43;8.40;;;12.10;99.90;;;;;;5090332;28;20036;-68
2021/09/29 08:50:18;;;;;;;13.07;7.20;;;12.20;99.90;;;;;;5091729;28;20052;-68
2021/09/29 08:53:12;;;;;;;11.85;6.57;;;12.20;99.90;;;;;;5076910;28;20441;-69
2021/09/29 09:17:31;;;;;;;15.00;7.45;;;12.30;99.90;;;;;;5091661;28;20056;-69
2021/09/29 09:20:17;;;;;;;12.63;7.72;;;12.20;99.90;;;;;;5093639;28;20049;-69
2021/09/29 09:22:47;;;;;;;21.40;7.45;;;12.20;99.90;;;;;;5084733;28;20060;-71
2021/09/29 09:25:13;;;;;;;15.57;7.68;;;12.20;99.90;;;;;;5089435;28;20119;-71
2021/09/29 09:27:47;;;;;;;18.83;8.85;;;12.30;99.90;;;;;;5104931;28;20051;-67
2021/09/29 09:30:34;;;;;;;21.00;8.52;;;12.30;99.90;;;;;;5100057;28;20044;-71
2021/09/29 09:33:00;;;;;;;16.13;10.18;;;12.30;99.90;;;;;;5084079;28;20040;-71
2021/09/29 09:35:39;;;;;;;23.23;9.70;;;12.40;99.90;;;;;;5099960;28;20199;-67
2021/09/29 09:38:11;;;;;;;17.95;9.13;;;12.40;99.90;;;;;;5099836;28;20074;-65
2021/09/29 09:40:37;;;;;;;19.52;9.18;;;12.40;99.90;;;;;;5102230;28;20054;-71
2021/09/29 09:43:04;;;;;;;14.38;8.40;;;12.40;99.90;;;;;;5098014;28;20078;-65
2021/09/29 09:45:48;;;;;;;16.20;8.73;;;12.40;99.90;;;;;;5080760;28;20054;-68
2021/09/29 09:48:26;;;;;;;15.35;9.32;;;12.50;99.90;;;;;;5098926;28;20067;-66
2021/09/29 09:51:06;;;;;;;15.97;8.77;;;12.50;99.90;;;;;;5082402;28;20059;-66
2021/09/29 09:53:34;;;;;;;12.35;8.73;;;12.50;99.90;;;;;;5103098;28;20048;-67
2021/09/29 09:56:14;;;;;;;19.08;9.98;;;12.50;99.90;;;;;;5083076;28;20043;-66
2021/09/29 09:58:50;;;;;;;23.80;10.10;;;12.60;99.90;;;;;;5102475;28;20036;-67
2021/09/29 10:01:17;;;;;;;14.23;9.05;;;12.50;99.90;;;;;;5102807;28;20060;-67
2021/09/29 10:03:44;;;;;;;14.20;8.80;;;12.40;99.90;;;;;;5101897;28;20037;-68
2021/09/29 10:06:10;;;;;;;12.93;9.40;;;12.40;99.90;;;;;;5100514;28;20131;-67
2021/09/29 10:08:36;;;;;;;16.25;10.52;;;12.30;99.90;;;;;;5103089;28;20058;-67
2021/09/29 10:11:13;;;;;;;20.10;11.95;;;12.30;99.90;;;;;;5087883;28;20040;-72
2021/09/29 10:28:09;;;;;;;12.98;9.05;;;12.30;99.90;;;;;;5023294;28;20445;-66
2021/09/29 10:30:43;;;;;;;12.10;8.38;;;12.40;99.90;;;;;;5015220;28;20591;-68
2021/09/29 10:33:22;;;;;;;13.10;9.93;;;12.40;99.90;;;;;;5021923;28;20041;-68
2021/09/29 10:45:30;;;;;;;12.25;8.50;;;12.50;99.90;;;;;;4976613;28;20061;-59
2021/09/29 10:47:40;;;;;;;9.77;7.60;;;12.50;99.90;;;;;;4995486;28;20162;-60
2021/09/29 11:02:48;;;;;;;12.60;7.60;;;12.50;99.90;;;;;;5083838;28;20041;-61
2021/09/29 11:27:15;;;;;;;8.40;6.20;;;12.50;99.90;;;;;;5060351;28;20510;-70
2021/09/29 11:31:44;;;;;;;10.30;5.13;;;12.30;99.90;;;;;;5052502;28;20060;-62
2021/09/29 11:34:20;;;;;;;6.38;3.13;;;12.20;99.90;;;;;;5081097;28;20403;-62
2021/09/29 11:37:04;;;;;;;3.20;1.63;;;12.20;99.90;;;;;;5081449;28;20055;-63
2021/09/29 11:39:45;;;;;;;4.40;1.85;;;12.10;99.90;;;;;;5096870;28;20052;-61
2021/09/29 12:10:17;;;;;;;3.20;1.00;;;11.90;99.90;;;;;;5101203;28;20044;-61
2021/09/29 12:12:50;;;;;;;3.00;1.50;;;12.00;99.90;;;;;;5096408;28;20048;-60
2021/09/29 12:15:15;;;;;;;2.17;0.80;;;11.90;99.90;;;;;;5106448;28;20068;-66
2021/09/29 12:17:41;;;;;;;2.03;0.80;;;11.90;99.90;;;;;;5072432;28;20048;-66
2021/09/29 12:20:20;;;;;;;2.22;0.65;;;11.70;99.90;;;;;;5102948;28;20103;-64
2021/09/29 12:22:54;;;;;;;3.63;0.57;;;11.60;99.90;;;;;;5101369;28;20048;-63
2021/09/29 12:25:35;;;;;;;2.80;0.60;;;11.60;99.90;;;;;;5099280;28;20302;-67
2021/09/29 12:30:43;;;;;;;2.38;0.68;;;11.60;99.90;;;;;;5081080;28;20078;-70
2021/09/29 12:33:15;;;;;;;5.20;0.75;;;11.60;99.90;;;;;;5099010;28;20050;-71
2021/09/29 12:35:54;;;;;;;4.35;0.60;;;11.50;99.90;;;;;;5085804;28;20082;-70
2021/09/29 12:38:21;;;;;;;3.13;0.77;;;11.60;99.90;;;;;;5093626;28;20044;-69
2021/09/29 12:40:49;;;;;;;5.30;1.40;;;11.50;99.90;;;;;;5089676;28;20059;-70
2021/09/29 12:43:17;;;;;;;4.43;0.90;;;11.50;99.90;;;;;;5094033;28;20294;-71
2021/09/29 12:45:47;;;;;;;5.00;0.90;;;11.40;99.90;;;;;;5083290;28;20044;-72
2021/09/29 12:48:15;;;;;;;1.92;0.73;;;11.50;99.90;;;;;;5098166;28;20048;-74
2021/09/29 12:53:49;;;;;;;6.70;1.00;;;11.50;99.90;;;;;;5085075;28;20052;-74
2021/09/29 12:56:17;;;;;;;5.82;1.25;;;11.40;99.90;;;;;;5097275;28;20051;-66
2021/09/29 12:58:43;;;;;;;5.88;1.33;;;11.50;99.90;;;;;;5099168;28;20043;-67
2021/09/29 13:01:09;;;;;;;4.63;1.20;;;11.50;99.90;;;;;;5099019;28;20044;-68
2021/09/29 13:03:35;;;;;;;7.15;1.83;;;11.50;99.90;;;;;;5103444;28;20046;-66
2021/09/29 13:06:01;;;;;;;10.52;1.85;;;11.50;99.90;;;;;;5104746;28;20579;-69
2021/09/29 13:08:27;;;;;;;7.07;1.15;;;11.50;99.90;;;;;;5094159;28;20062;-64
2021/09/29 13:10:54;;;;;;;6.20;1.13;;;11.60;99.90;;;;;;5098395;28;20099;-64
2021/09/29 13:13:20;;;;;;;6.65;1.65;;;11.70;99.90;;;;;;5103844;28;20047;-64
2021/09/29 13:15:50;;;;;;;4.40;1.00;;;11.60;99.90;;;;;;5105281;28;20040;-63
2021/09/29 13:18:24;;;;;;;4.18;0.80;;;11.50;99.90;;;;;;5100472;28;20067;-62
2021/09/29 13:21:01;;;;;;;7.95;1.17;;;11.40;99.90;;;;;;5101858;28;20052;-62
2021/09/29 13:23:32;;;;;;;2.55;1.30;;;11.40;99.90;;;;;;5101917;28;20044;-62
2021/09/29 13:36:46;;;;;;;5.18;1.67;;;11.30;99.90;;;;;;5103681;28;20582;-65
2021/09/29 13:39:16;;;;;;;4.82;1.15;;;11.30;99.90;;;;;;5102827;28;20495;-62
2021/09/29 13:41:43;;;;;;;5.45;1.33;;;11.40;99.90;;;;;;5074899;28;20219;-63
2021/09/29 13:44:10;;;;;;;6.93;1.88;;;11.50;99.90;;;;;;5096098;28;20423;-66
2021/09/29 13:46:39;;;;;;;8.80;1.60;;;11.50;99.90;;;;;;5102850;28;20044;-73
2021/09/29 13:49:06;;;;;;;6.13;1.50;;;11.60;99.90;;;;;;5087729;28;20040;-66
2021/09/29 13:51:33;;;;;;;6.85;1.48;;;11.50;99.90;;;;;;5098425;28;20062;-66
2021/09/29 13:54:06;;;;;;;12.43;2.13;;;11.50;99.90;;;;;;5100608;28;20093;-67
2021/09/29 13:56:42;;;;;;;4.10;1.60;;;11.50;99.90;;;;;;5081182;28;20318;-65
2021/09/29 13:59:22;;;;;;;3.97;1.65;;;11.50;99.90;;;;;;5103615;28;20043;-67
2021/09/29 14:02:23;;;;;;;8.63;2.05;;;11.50;99.90;;;;;;5103330;28;20046;-64
2021/09/29 14:29:35;;;;;;;4.63;1.40;;;11.40;99.90;;;;;;5080632;28;20067;-68
2021/09/29 14:32:43;;;;;;;10.40;1.90;;;11.20;99.90;;;;;;5078525;28;20058;-68
2021/09/29 14:34:52;;;;;;;5.68;1.60;;;11.40;99.90;;;;;;5092844;28;20040;-69
2021/09/29 14:37:18;;;;;;;6.22;1.85;;;11.30;99.90;;;;;;5100848;28;20056;-70
2021/09/29 14:39:44;;;;;;;4.32;1.00;;;11.30;99.90;;;;;;5094614;28;20044;-60
2021/09/29 14:42:10;;;;;;;4.60;0.93;;;11.10;99.90;;;;;;5101133;28;20043;-60
2021/09/29 14:44:36;;;;;;;2.45;1.10;;;11.00;99.90;;;;;;5093958;28;20041;-59
2021/09/29 14:47:09;;;;;;;5.25;1.30;;;11.00;99.90;;;;;;5093743;28;20050;-66
2021/09/29 14:49:35;;;;;;;6.80;1.42;;;10.90;99.90;;;;;;5096532;28;20574;-66
2021/09/29 14:52:03;;;;;;;5.78;1.58;;;10.70;99.90;;;;;;5103865;28;20040;-66
2021/09/29 14:54:30;;;;;;;4.25;0.90;;;10.60;99.90;;;;;;5099134;28;20051;-68
2021/09/29 14:56:56;;;;;;;7.32;2.10;;;10.50;99.90;;;;;;5099451;28;20044;-64
2021/09/29 14:59:22;;;;;;;5.72;2.00;;;10.40;99.90;;;;;;5079360;28;20120;-65
2021/09/29 15:01:48;;;;;;;6.22;1.50;;;10.50;99.90;;;;;;5098925;28;21183;-63
2021/09/29 15:04:13;;;;;;;5.15;1.00;;;10.40;99.90;;;;;;5095901;28;20123;-65
2021/09/29 15:06:39;;;;;;;17.10;2.08;;;10.40;99.90;;;;;;5099441;28;20297;-64
2021/09/29 15:09:05;;;;;;;7.82;1.35;;;10.50;99.90;;;;;;5097976;28;20040;-63
2021/09/29 15:11:31;;;;;;;6.05;1.13;;;10.40;99.90;;;;;;5092810;28;20048;-63
2021/09/29 15:14:04;;;;;;;6.35;1.45;;;10.40;99.90;;;;;;5097366;28;20039;-63
2021/09/29 15:16:33;;;;;;;3.03;1.30;;;10.40;99.90;;;;;;5073014;28;20033;-64
2021/09/29 15:48:12;;;;;;;10.20;1.60;;;10.20;99.90;;;;;;5066878;28;20082;-64
2021/09/29 15:53:53;;;;;;;7.00;1.00;;;10.10;99.90;;;;;;5078468;28;20044;-64
2021/09/29 15:56:45;;;;;;;10.27;1.92;;;10.10;99.90;;;;;;5098826;28;20106;-64
2021/09/29 16:01:51;;;;;;;15.10;1.73;;;10.10;99.90;;;;;;5078582;28;20109;-64